createdAt,value
2019-02-20T00:00:56.371Z,1023.01
2019-02-20T00:01:56.942Z,1022.94
2019-02-20T00:02:57.515Z,1022.98
2019-02-20T00:03:58.096Z,1023.01
2019-02-20T00:04:58.661Z,1022.98
2019-02-20T00:05:59.234Z,1023.03
2019-02-20T00:06:59.807Z,1023.00
2019-02-20T00:08:00.378Z,1023.01
2019-02-20T00:09:00.960Z,1023.02
2019-02-20T00:10:01.529Z,1023.06
2019-02-20T00:11:02.102Z,1023.02
2019-02-20T00:12:02.672Z,1022.95
2019-02-20T00:13:03.247Z,1023.07
2019-02-20T00:14:03.817Z,1023.04
2019-02-20T00:15:04.442Z,1023.01
2019-02-20T00:16:05.063Z,1023.06
2019-02-20T00:17:05.675Z,1023.01
2019-02-20T00:18:06.249Z,1023.03
2019-02-20T00:19:06.822Z,1023.00
2019-02-20T00:20:07.398Z,1023.01
2019-02-20T00:21:08.025Z,1022.97
2019-02-20T00:22:08.588Z,1023.03
2019-02-20T00:23:09.163Z,1023.08
2019-02-20T00:24:09.735Z,1023.09
2019-02-20T00:25:10.308Z,1023.11
2019-02-20T00:26:10.930Z,1023.04
2019-02-20T00:27:11.504Z,1023.00
2019-02-20T00:28:12.077Z,1023.04
2019-02-20T00:29:12.651Z,1023.01
2019-02-20T00:31:23.694Z,1023.12
2019-02-20T00:32:24.320Z,1023.13
2019-02-20T00:33:25.032Z,1023.18
2019-02-20T00:34:25.607Z,1023.12
2019-02-20T00:35:26.178Z,1023.12
2019-02-20T00:36:26.751Z,1023.08
2019-02-20T00:37:27.329Z,1023.16
2019-02-20T00:38:27.897Z,1023.13
2019-02-20T00:39:28.469Z,1023.10
2019-02-20T00:40:29.048Z,1023.14
2019-02-20T00:41:29.620Z,1023.14
2019-02-20T00:42:30.187Z,1023.15
2019-02-20T00:43:30.758Z,1023.22
2019-02-20T00:44:31.334Z,1023.13
2019-02-20T00:45:31.906Z,1023.14
2019-02-20T00:46:32.477Z,1023.14
2019-02-20T00:47:33.099Z,1023.16
2019-02-20T00:48:33.673Z,1023.21
2019-02-20T00:49:34.291Z,1023.22
2019-02-20T00:50:34.866Z,1023.24
2019-02-20T00:51:35.440Z,1023.19
2019-02-20T00:52:36.015Z,1023.23
2019-02-20T00:53:36.590Z,1023.30
2019-02-20T00:54:37.161Z,1023.25
2019-02-20T00:55:37.738Z,1023.25
2019-02-20T00:56:38.307Z,1023.28
2019-02-20T00:57:38.882Z,1023.30
2019-02-20T00:58:39.453Z,1023.20
2019-02-20T00:59:40.025Z,1023.29
2019-02-20T01:00:40.603Z,1023.28
2019-02-20T01:01:41.173Z,1023.30
2019-02-20T01:02:41.944Z,1023.21
2019-02-20T01:03:42.519Z,1023.24
2019-02-20T01:04:43.094Z,1023.24
2019-02-20T01:05:43.672Z,1023.24
2019-02-20T01:06:45.331Z,1023.21
2019-02-20T01:07:45.804Z,1023.23
2019-02-20T01:08:46.375Z,1023.19
2019-02-20T01:09:47.004Z,1023.18
2019-02-20T01:10:47.617Z,1023.19
2019-02-20T01:11:48.186Z,1023.22
2019-02-20T01:12:48.762Z,1023.13
2019-02-20T01:13:49.335Z,1023.21
2019-02-20T01:14:49.912Z,1023.11
2019-02-20T01:15:50.480Z,1023.12
2019-02-20T01:16:51.054Z,1023.19
2019-02-20T01:17:51.622Z,1023.17
2019-02-20T01:18:52.197Z,1023.21
2019-02-20T01:19:52.769Z,1023.18
2019-02-20T01:20:53.343Z,1023.20
2019-02-20T01:21:53.915Z,1023.13
2019-02-20T01:22:59.857Z,1023.15
2019-02-20T01:23:56.103Z,1023.24
2019-02-20T01:24:56.674Z,1023.27
2019-02-20T01:25:57.251Z,1023.14
2019-02-20T01:26:57.819Z,1023.19
2019-02-20T01:27:58.392Z,1023.25
2019-02-20T01:28:58.964Z,1023.19
2019-02-20T01:29:59.537Z,1023.17
2019-02-20T01:31:00.114Z,1023.13
2019-02-20T01:32:00.684Z,1023.14
2019-02-20T01:33:01.254Z,1023.10
2019-02-20T01:34:01.829Z,1023.17
2019-02-20T01:35:02.400Z,1023.09
2019-02-20T01:36:02.975Z,1023.11
2019-02-20T01:37:03.544Z,1023.10
2019-02-20T01:38:04.166Z,1023.14
2019-02-20T01:39:04.789Z,1023.11
2019-02-20T01:40:05.374Z,1023.15
2019-02-20T01:41:05.936Z,1023.09
2019-02-20T01:42:06.508Z,1023.17
2019-02-20T01:43:07.081Z,1023.10
2019-02-20T01:44:07.652Z,1023.15
2019-02-20T01:45:08.229Z,1023.15
2019-02-20T01:46:08.848Z,1023.20
2019-02-20T01:47:09.417Z,1023.19
2019-02-20T01:48:10.038Z,1023.14
2019-02-20T01:49:10.613Z,1023.19
2019-02-20T01:50:11.181Z,1023.09
2019-02-20T01:51:11.753Z,1023.17
2019-02-20T01:52:12.324Z,1023.13
2019-02-20T01:53:12.897Z,1023.15
2019-02-20T01:54:13.469Z,1023.06
2019-02-20T01:55:14.038Z,1023.08
2019-02-20T01:56:14.610Z,1023.11
2019-02-20T01:57:15.181Z,1023.09
2019-02-20T01:58:15.752Z,1023.03
2019-02-20T01:59:16.323Z,1023.07
2019-02-20T02:00:16.893Z,1023.06
2019-02-20T02:01:17.521Z,1023.07
2019-02-20T02:02:18.094Z,1023.04
2019-02-20T02:03:18.731Z,1023.10
2019-02-20T02:04:19.323Z,1023.07
2019-02-20T02:05:19.895Z,1023.11
2019-02-20T02:06:20.518Z,1023.02
2019-02-20T02:07:21.088Z,1023.07
2019-02-20T02:08:21.661Z,1023.16
2019-02-20T02:09:22.234Z,1023.11
2019-02-20T02:10:22.805Z,1023.12
2019-02-20T02:11:23.379Z,1023.12
2019-02-20T02:12:23.951Z,1023.09
2019-02-20T02:13:24.526Z,1023.05
2019-02-20T02:14:25.107Z,1023.03
2019-02-20T02:15:25.715Z,1023.07
2019-02-20T02:16:26.283Z,1023.06
2019-02-20T02:17:26.854Z,1023.04
2019-02-20T02:18:27.426Z,1023.11
2019-02-20T02:19:27.997Z,1023.13
2019-02-20T02:20:28.620Z,1023.12
2019-02-20T02:21:29.194Z,1023.14
2019-02-20T02:22:29.817Z,1023.14
2019-02-20T02:23:30.391Z,1023.16
2019-02-20T02:24:30.964Z,1023.13
2019-02-20T02:25:31.536Z,1023.07
2019-02-20T02:26:32.107Z,1023.12
2019-02-20T02:27:32.697Z,1023.13
2019-02-20T02:28:33.254Z,1023.17
2019-02-20T02:29:33.824Z,1023.13
2019-02-20T02:30:34.394Z,1023.11
2019-02-20T02:31:34.985Z,1023.14
2019-02-20T02:32:35.539Z,1023.18
2019-02-20T02:33:36.112Z,1023.23
2019-02-20T02:34:36.683Z,1023.25
2019-02-20T02:35:37.303Z,1023.30
2019-02-20T02:36:37.876Z,1023.27
2019-02-20T02:37:38.446Z,1023.36
2019-02-20T02:38:39.072Z,1023.34
2019-02-20T02:39:39.640Z,1023.26
2019-02-20T02:40:40.211Z,1023.31
2019-02-20T02:41:40.838Z,1023.38
2019-02-20T02:42:41.405Z,1023.35
2019-02-20T02:43:41.985Z,1023.37
2019-02-20T02:44:42.551Z,1023.44
2019-02-20T02:45:43.125Z,1023.43
2019-02-20T02:46:43.738Z,1023.52
2019-02-20T02:47:44.312Z,1023.47
2019-02-20T02:48:44.889Z,1023.49
2019-02-20T02:49:45.457Z,1023.34
2019-02-20T02:50:46.029Z,1023.49
2019-02-20T02:51:46.599Z,1023.47
2019-02-20T02:52:47.171Z,1023.48
2019-02-20T02:53:47.797Z,1023.50
2019-02-20T02:54:48.368Z,1023.42
2019-02-20T02:55:48.946Z,1023.43
2019-02-20T02:56:49.513Z,1023.47
2019-02-20T02:57:50.237Z,1023.50
2019-02-20T02:58:50.810Z,1023.41
2019-02-20T02:59:51.383Z,1023.47
2019-02-20T03:00:54.189Z,1023.41
2019-02-20T03:01:53.564Z,1023.48
2019-02-20T03:02:54.142Z,1023.50
2019-02-20T03:03:54.752Z,1023.46
2019-02-20T03:04:55.324Z,1023.50
2019-02-20T03:05:55.899Z,1023.47
2019-02-20T03:06:56.473Z,1023.47
2019-02-20T03:07:57.039Z,1023.49
2019-02-20T03:08:57.612Z,1023.45
2019-02-20T03:09:58.184Z,1023.48
2019-02-20T03:10:58.755Z,1023.46
2019-02-20T03:11:59.380Z,1023.40
2019-02-20T03:12:59.951Z,1023.45
2019-02-20T03:14:00.521Z,1023.45
2019-02-20T03:15:01.094Z,1023.47
2019-02-20T03:16:01.706Z,1023.42
2019-02-20T03:17:02.326Z,1023.49
2019-02-20T03:18:03.759Z,1023.48
2019-02-20T03:19:04.365Z,1023.41
2019-02-20T03:20:04.939Z,1023.46
2019-02-20T03:21:05.506Z,1023.46
2019-02-20T03:22:06.076Z,1023.45
2019-02-20T03:23:06.663Z,1023.38
2019-02-20T03:24:07.218Z,1023.31
2019-02-20T03:25:07.789Z,1023.42
2019-02-20T03:26:08.364Z,1023.35
2019-02-20T03:27:08.934Z,1023.32
2019-02-20T03:28:09.504Z,1023.32
2019-02-20T03:29:10.077Z,1023.33
2019-02-20T03:30:10.648Z,1023.35
2019-02-20T03:31:11.230Z,1023.28
2019-02-20T03:32:11.791Z,1023.25
2019-02-20T03:33:12.371Z,1023.32
2019-02-20T03:34:12.977Z,1023.28
2019-02-20T03:35:13.587Z,1023.27
2019-02-20T03:36:14.158Z,1023.25
2019-02-20T03:37:14.728Z,1023.23
2019-02-20T03:38:15.300Z,1023.23
2019-02-20T03:39:15.871Z,1023.18
2019-02-20T03:40:16.454Z,1023.20
2019-02-20T03:41:17.062Z,1023.16
2019-02-20T03:42:17.646Z,1023.16
2019-02-20T03:43:18.204Z,1023.22
2019-02-20T03:44:18.778Z,1023.11
2019-02-20T03:45:19.387Z,1023.17
2019-02-20T03:46:19.966Z,1023.14
2019-02-20T03:47:20.535Z,1023.15
2019-02-20T03:48:21.104Z,1023.21
2019-02-20T03:49:21.677Z,1023.15
2019-02-20T03:50:22.250Z,1023.16
2019-02-20T03:51:22.820Z,1023.17
2019-02-20T03:52:23.393Z,1023.10
2019-02-20T03:53:23.966Z,1023.13
2019-02-20T03:54:24.537Z,1023.08
2019-02-20T03:55:25.110Z,1023.19
2019-02-20T03:56:25.772Z,1023.14
2019-02-20T03:57:26.346Z,1023.14
2019-02-20T03:58:26.917Z,1023.12
2019-02-20T03:59:27.490Z,1023.09
2019-02-20T04:00:28.062Z,1023.09
2019-02-20T04:01:28.636Z,1023.16
2019-02-20T04:02:29.207Z,1023.12
2019-02-20T04:03:29.781Z,1023.11
2019-02-20T04:04:30.361Z,1023.06
2019-02-20T04:05:30.922Z,1023.09
2019-02-20T04:06:31.497Z,1023.10
2019-02-20T04:07:32.109Z,1023.03
2019-02-20T04:08:32.678Z,1023.09
2019-02-20T04:09:33.252Z,1023.06
2019-02-20T04:10:33.822Z,1023.08
2019-02-20T04:11:34.396Z,1023.21
2019-02-20T04:12:34.968Z,1023.20
2019-02-20T04:13:35.539Z,1023.15
2019-02-20T04:14:36.127Z,1023.14
2019-02-20T04:15:36.730Z,1023.18
2019-02-20T04:16:37.295Z,1023.17
2019-02-20T04:17:37.868Z,1023.25
2019-02-20T04:18:38.490Z,1023.16
2019-02-20T04:19:39.063Z,1023.12
2019-02-20T04:20:39.635Z,1023.15
2019-02-20T04:21:40.209Z,1023.17
2019-02-20T04:22:40.782Z,1023.12
2019-02-20T04:23:41.353Z,1023.15
2019-02-20T04:24:41.924Z,1023.13
2019-02-20T04:25:42.501Z,1023.16
2019-02-20T04:26:43.073Z,1023.18
2019-02-20T04:27:43.644Z,1023.14
2019-02-20T04:28:44.235Z,1023.21
2019-02-20T04:29:44.836Z,1023.17
2019-02-20T04:30:45.410Z,1023.16
2019-02-20T04:31:45.979Z,1023.08
2019-02-20T04:32:46.603Z,1023.15
2019-02-20T04:33:47.178Z,1023.09
2019-02-20T04:34:47.752Z,1023.13
2019-02-20T04:35:48.369Z,1023.08
2019-02-20T04:36:48.944Z,1023.08
2019-02-20T04:37:49.571Z,1023.07
2019-02-20T04:38:50.137Z,1023.09
2019-02-20T04:39:50.707Z,1023.13
2019-02-20T04:40:51.278Z,1023.13
2019-02-20T04:41:51.850Z,1023.05
2019-02-20T04:42:52.421Z,1023.10
2019-02-20T04:43:52.995Z,1023.08
2019-02-20T04:44:53.624Z,1023.12
2019-02-20T04:45:54.188Z,1023.10
2019-02-20T04:46:54.766Z,1023.15
2019-02-20T04:47:55.334Z,1023.14
2019-02-20T04:48:55.907Z,1023.16
2019-02-20T04:49:56.530Z,1023.18
2019-02-20T04:50:57.102Z,1023.18
2019-02-20T04:51:57.680Z,1023.17
2019-02-20T04:52:58.250Z,1023.22
2019-02-20T04:53:58.823Z,1023.22
2019-02-20T04:54:59.396Z,1023.22
2019-02-20T04:55:59.970Z,1023.25
2019-02-20T04:57:00.546Z,1023.23
2019-02-20T04:58:01.166Z,1023.26
2019-02-20T04:59:01.754Z,1023.28
2019-02-20T05:00:02.357Z,1023.27
2019-02-20T05:01:02.929Z,1023.25
2019-02-20T05:02:03.527Z,1023.28
2019-02-20T05:03:04.077Z,1023.27
2019-02-20T05:04:04.647Z,1023.26
2019-02-20T05:05:05.371Z,1023.25
2019-02-20T05:06:05.949Z,1023.25
2019-02-20T05:07:06.519Z,1023.35
2019-02-20T05:08:07.098Z,1023.32
2019-02-20T05:09:07.662Z,1023.29
2019-02-20T05:10:08.234Z,1023.33
2019-02-20T05:11:08.847Z,1023.30
2019-02-20T05:12:09.419Z,1023.37
2019-02-20T05:13:10.003Z,1023.37
2019-02-20T05:14:10.562Z,1023.37
2019-02-20T05:15:11.133Z,1023.36
2019-02-20T05:16:11.704Z,1023.38
2019-02-20T05:17:12.277Z,1023.44
2019-02-20T05:18:12.847Z,1023.45
2019-02-20T05:19:13.423Z,1023.40
2019-02-20T05:20:13.991Z,1023.37
2019-02-20T05:21:14.563Z,1023.42
2019-02-20T05:22:15.138Z,1023.42
2019-02-20T05:23:15.748Z,1023.42
2019-02-20T05:24:23.988Z,1023.45
2019-02-20T05:25:17.889Z,1023.42
2019-02-20T05:26:18.460Z,1023.43
2019-02-20T05:27:19.079Z,1023.45
2019-02-20T05:28:19.653Z,1023.44
2019-02-20T05:29:20.276Z,1023.38
2019-02-20T05:30:20.854Z,1023.43
2019-02-20T05:31:21.458Z,1023.48
2019-02-20T05:32:22.080Z,1023.44
2019-02-20T05:33:22.651Z,1023.40
2019-02-20T05:34:23.222Z,1023.41
2019-02-20T05:35:23.794Z,1023.40
2019-02-20T05:36:24.365Z,1023.41
2019-02-20T05:37:24.937Z,1023.40
2019-02-20T05:38:25.506Z,1023.40
2019-02-20T05:39:26.128Z,1023.39
2019-02-20T05:40:26.700Z,1023.38
2019-02-20T05:41:27.275Z,1023.40
2019-02-20T05:42:27.848Z,1023.36
2019-02-20T05:43:28.422Z,1023.33
2019-02-20T05:44:29.048Z,1023.37
2019-02-20T05:45:29.617Z,1023.35
2019-02-20T05:46:30.240Z,1023.30
2019-02-20T05:47:30.822Z,1023.40
2019-02-20T05:48:31.437Z,1023.37
2019-02-20T05:49:32.008Z,1023.28
2019-02-20T05:50:32.581Z,1023.30
2019-02-20T05:51:33.156Z,1023.29
2019-02-20T05:52:33.724Z,1023.35
2019-02-20T05:53:34.314Z,1023.24
2019-02-20T05:54:35.278Z,1023.34
2019-02-20T05:55:35.900Z,1023.27
2019-02-20T05:56:36.474Z,1023.28
2019-02-20T05:57:37.049Z,1023.28
2019-02-20T05:58:37.618Z,1023.32
2019-02-20T05:59:38.187Z,1023.32
2019-02-20T06:00:38.769Z,1023.34
2019-02-20T06:01:39.329Z,1023.32
2019-02-20T06:02:39.952Z,1023.36
2019-02-20T06:03:40.527Z,1023.32
2019-02-20T06:04:41.156Z,1023.36
2019-02-20T06:05:41.766Z,1023.32
2019-02-20T06:06:42.380Z,1023.33
2019-02-20T06:07:42.955Z,1023.36
2019-02-20T06:08:43.564Z,1023.34
2019-02-20T06:09:44.136Z,1023.28
2019-02-20T06:10:44.864Z,1023.40
2019-02-20T06:11:45.430Z,1023.34
2019-02-20T06:12:46.003Z,1023.31
2019-02-20T06:13:46.579Z,1023.31
2019-02-20T06:14:47.145Z,1023.26
2019-02-20T06:15:47.718Z,1023.26
2019-02-20T06:16:48.289Z,1023.27
2019-02-20T06:17:48.864Z,1023.27
2019-02-20T06:18:49.433Z,1023.32
2019-02-20T06:19:50.007Z,1023.29
2019-02-20T06:20:50.630Z,1023.27
2019-02-20T06:21:51.204Z,1023.30
2019-02-20T06:22:51.775Z,1023.29
2019-02-20T06:23:52.348Z,1023.27
2019-02-20T06:24:52.925Z,1023.22
2019-02-20T06:25:53.491Z,1023.18
2019-02-20T06:26:54.070Z,1023.27
2019-02-20T06:27:54.637Z,1023.33
2019-02-20T06:28:55.256Z,1023.26
2019-02-20T06:29:55.826Z,1023.32
2019-02-20T06:30:56.475Z,1023.21
2019-02-20T06:31:57.075Z,1023.37
2019-02-20T06:32:57.694Z,1023.33
2019-02-20T06:33:58.266Z,1023.32
2019-02-20T06:34:58.837Z,1023.31
2019-02-20T06:35:59.410Z,1023.23
2019-02-20T06:36:59.982Z,1023.29
2019-02-20T06:38:00.555Z,1023.23
2019-02-20T06:39:01.125Z,1023.27
2019-02-20T06:40:01.706Z,1023.32
2019-02-20T06:41:02.269Z,1023.21
2019-02-20T06:42:02.841Z,1023.27
2019-02-20T06:43:03.418Z,1023.26
2019-02-20T06:44:04.027Z,1023.26
2019-02-20T06:45:04.598Z,1023.23
2019-02-20T06:46:05.170Z,1023.26
2019-02-20T06:47:05.743Z,1023.20
2019-02-20T06:48:06.369Z,1023.24
2019-02-20T06:49:06.987Z,1023.26
2019-02-20T06:50:07.558Z,1023.28
2019-02-20T06:51:08.181Z,1023.20
2019-02-20T06:52:08.761Z,1023.19
2019-02-20T06:53:09.326Z,1023.27
2019-02-20T06:54:09.922Z,1023.27
2019-02-20T06:55:10.475Z,1023.26
2019-02-20T06:56:11.046Z,1023.25
2019-02-20T06:57:11.619Z,1023.31
2019-02-20T06:58:12.191Z,1023.24
2019-02-20T06:59:12.772Z,1023.29
2019-02-20T07:00:13.337Z,1023.29
2019-02-20T07:01:13.949Z,1023.26
2019-02-20T07:02:14.520Z,1023.28
2019-02-20T07:03:15.092Z,1023.28
2019-02-20T07:04:15.663Z,1023.29
2019-02-20T07:05:16.234Z,1023.35
2019-02-20T07:06:16.855Z,1023.32
2019-02-20T07:07:17.427Z,1023.19
2019-02-20T07:08:18.054Z,1023.20
2019-02-20T07:09:18.665Z,1023.33
2019-02-20T07:10:19.238Z,1023.26
2019-02-20T07:11:19.858Z,1023.26
2019-02-20T07:12:20.433Z,1023.21
2019-02-20T07:13:21.005Z,1023.26
2019-02-20T07:14:21.576Z,1023.24
2019-02-20T07:15:22.148Z,1023.25
2019-02-20T07:16:22.720Z,1023.21
2019-02-20T07:17:23.290Z,1023.30
2019-02-20T07:18:23.881Z,1023.24
2019-02-20T07:19:24.486Z,1023.22
2019-02-20T07:20:25.053Z,1023.30
2019-02-20T07:21:25.624Z,1023.37
2019-02-20T07:22:26.247Z,1023.34
2019-02-20T07:23:26.822Z,1023.37
2019-02-20T07:24:27.404Z,1023.44
2019-02-20T07:25:27.968Z,1023.38
2019-02-20T07:26:28.552Z,1023.38
2019-02-20T07:27:29.162Z,1023.31
2019-02-20T07:28:29.727Z,1023.32
2019-02-20T07:29:30.306Z,1023.40
2019-02-20T07:30:30.917Z,1023.30
2019-02-20T07:31:31.490Z,1023.37
2019-02-20T07:32:32.061Z,1023.42
2019-02-20T07:33:32.668Z,1023.32
2019-02-20T07:34:33.242Z,1023.31
2019-02-20T07:35:33.812Z,1023.30
2019-02-20T07:36:34.385Z,1023.37
2019-02-20T07:37:34.957Z,1023.42
2019-02-20T07:38:35.527Z,1023.42
2019-02-20T07:39:36.097Z,1023.42
2019-02-20T07:40:36.671Z,1023.46
2019-02-20T07:41:37.286Z,1023.46
2019-02-20T07:42:37.857Z,1023.42
2019-02-20T07:43:38.519Z,1023.52
2019-02-20T07:44:39.092Z,1023.51
2019-02-20T07:45:39.665Z,1023.49
2019-02-20T07:46:40.238Z,1023.49
2019-02-20T07:47:40.811Z,1023.51
2019-02-20T07:48:41.384Z,1023.44
2019-02-20T07:49:41.954Z,1023.52
2019-02-20T07:50:42.526Z,1023.48
2019-02-20T07:51:43.099Z,1023.51
2019-02-20T07:52:43.675Z,1023.54
2019-02-20T07:53:44.248Z,1023.67
2019-02-20T07:54:44.824Z,1023.63
2019-02-20T07:55:45.389Z,1023.64
2019-02-20T07:56:45.961Z,1023.65
2019-02-20T07:57:46.530Z,1023.69
2019-02-20T07:58:47.102Z,1023.73
2019-02-20T07:59:47.673Z,1023.80
2019-02-20T08:00:48.301Z,1023.78
2019-02-20T08:01:48.962Z,1023.80
2019-02-20T08:02:49.536Z,1023.77
2019-02-20T08:03:50.106Z,1023.70
2019-02-20T08:04:50.678Z,1023.81
2019-02-20T08:05:51.252Z,1023.77
2019-02-20T08:06:51.827Z,1023.72
2019-02-20T08:07:52.448Z,1023.79
2019-02-20T08:08:53.025Z,1023.79
2019-02-20T08:09:53.593Z,1023.76
2019-02-20T08:10:54.165Z,1023.77
2019-02-20T08:11:54.736Z,1023.76
2019-02-20T08:12:55.307Z,1023.77
2019-02-20T08:13:55.881Z,1023.81
2019-02-20T08:14:56.451Z,1023.70
2019-02-20T08:15:57.024Z,1023.85
2019-02-20T08:16:57.594Z,1023.79
2019-02-20T08:17:58.167Z,1023.76
2019-02-20T08:18:58.891Z,1023.83
2019-02-20T08:19:59.465Z,1023.81
2019-02-20T08:21:00.039Z,1023.86
2019-02-20T08:22:00.611Z,1023.88
2019-02-20T08:23:01.187Z,1023.83
2019-02-20T08:24:01.768Z,1023.92
2019-02-20T08:25:02.423Z,1023.92
2019-02-20T08:26:03.021Z,1023.91
2019-02-20T08:27:03.576Z,1023.89
2019-02-20T08:28:04.194Z,1023.88
2019-02-20T08:29:04.765Z,1023.93
2019-02-20T08:30:05.338Z,1023.97
2019-02-20T08:31:05.911Z,1023.87
2019-02-20T08:32:06.536Z,1023.89
2019-02-20T08:33:07.110Z,1023.96
2019-02-20T08:34:07.684Z,1023.95
2019-02-20T08:35:08.305Z,1024.01
2019-02-20T08:36:08.878Z,1023.93
2019-02-20T08:37:09.450Z,1023.96
2019-02-20T08:38:10.026Z,1023.98
2019-02-20T08:39:10.603Z,1023.92
2019-02-20T08:40:11.214Z,1023.95
2019-02-20T08:41:11.786Z,1024.00
2019-02-20T08:42:12.358Z,1023.88
2019-02-20T08:43:12.937Z,1023.92
2019-02-20T08:44:13.505Z,1023.98
2019-02-20T08:45:14.073Z,1024.04
2019-02-20T08:46:14.648Z,1024.05
2019-02-20T08:47:15.219Z,1023.95
2019-02-20T08:48:15.839Z,1024.08
2019-02-20T08:49:16.419Z,1024.03
2019-02-20T08:50:17.017Z,1024.07
2019-02-20T08:51:17.563Z,1023.95
2019-02-20T08:52:18.134Z,1024.07
2019-02-20T08:53:18.706Z,1024.03
2019-02-20T08:54:19.331Z,1024.06
2019-02-20T08:55:19.900Z,1024.01
2019-02-20T08:56:20.472Z,1024.02
2019-02-20T08:57:21.045Z,1024.00
2019-02-20T08:58:21.623Z,1024.08
2019-02-20T08:59:22.194Z,1024.06
2019-02-20T09:00:22.771Z,1023.99
2019-02-20T09:01:23.348Z,1024.04
2019-02-20T09:02:23.916Z,1024.01
2019-02-20T09:03:24.538Z,1024.03
2019-02-20T09:04:25.112Z,1024.08
2019-02-20T09:05:25.686Z,1024.02
2019-02-20T09:06:26.258Z,1024.03
2019-02-20T09:07:26.831Z,1023.97
2019-02-20T09:08:27.404Z,1023.93
2019-02-20T09:09:27.978Z,1024.03
2019-02-20T09:10:28.550Z,1024.02
2019-02-20T09:11:29.122Z,1024.07
2019-02-20T09:12:29.747Z,1024.07
2019-02-20T09:13:30.368Z,1024.08
2019-02-20T09:14:30.942Z,1024.09
2019-02-20T09:15:31.514Z,1024.02
2019-02-20T09:16:32.091Z,1024.09
2019-02-20T09:17:33.616Z,1024.08
2019-02-20T09:18:34.188Z,1024.17
2019-02-20T09:19:34.762Z,1024.12
2019-02-20T09:20:35.335Z,1024.19
2019-02-20T09:21:35.905Z,1024.16
2019-02-20T09:22:36.482Z,1024.18
2019-02-20T09:23:37.052Z,1024.18
2019-02-20T09:24:37.622Z,1024.14
2019-02-20T09:25:41.634Z,1024.11
2019-02-20T09:26:39.811Z,1024.14
2019-02-20T09:27:40.438Z,1024.14
2019-02-20T09:28:41.052Z,1024.10
2019-02-20T09:29:41.625Z,1024.06
2019-02-20T09:30:42.201Z,1024.19
2019-02-20T09:31:42.813Z,1024.13
2019-02-20T09:32:43.386Z,1024.08
2019-02-20T09:33:43.956Z,1024.08
2019-02-20T09:34:44.531Z,1024.15
2019-02-20T09:35:45.102Z,1024.10
2019-02-20T09:36:45.678Z,1024.10
2019-02-20T09:37:46.248Z,1024.17
2019-02-20T09:38:46.823Z,1024.16
2019-02-20T09:39:47.448Z,1024.18
2019-02-20T09:40:48.019Z,1024.22
2019-02-20T09:41:48.595Z,1024.19
2019-02-20T09:42:49.166Z,1024.23
2019-02-20T09:43:49.790Z,1024.21
2019-02-20T09:44:50.397Z,1024.21
2019-02-20T09:45:50.941Z,1024.27
2019-02-20T09:46:51.519Z,1024.21
2019-02-20T09:47:52.104Z,1024.28
2019-02-20T09:48:52.659Z,1024.33
2019-02-20T09:49:53.236Z,1024.35
2019-02-20T09:50:53.806Z,1024.32
2019-02-20T09:51:54.379Z,1024.35
2019-02-20T09:52:54.955Z,1024.32
2019-02-20T09:53:55.529Z,1024.35
2019-02-20T09:54:56.104Z,1024.40
2019-02-20T09:55:56.677Z,1024.30
2019-02-20T09:56:57.302Z,1024.44
2019-02-20T09:57:57.877Z,1024.35
2019-02-20T09:58:58.502Z,1024.33
2019-02-20T09:59:59.072Z,1024.35
2019-02-20T10:00:59.644Z,1024.36
2019-02-20T10:02:00.267Z,1024.40
2019-02-20T10:03:00.842Z,1024.40
2019-02-20T10:04:01.419Z,1024.47
2019-02-20T10:05:01.994Z,1024.38
2019-02-20T10:06:02.567Z,1024.36
2019-02-20T10:07:03.136Z,1024.43
2019-02-20T10:08:04.531Z,1024.41
2019-02-20T10:09:05.147Z,1024.42
2019-02-20T10:10:05.721Z,1024.43
2019-02-20T10:11:06.293Z,1024.43
2019-02-20T10:12:06.870Z,1024.48
2019-02-20T10:13:09.494Z,1024.56
2019-02-20T10:14:09.006Z,1024.50
2019-02-20T10:15:09.586Z,1024.51
2019-02-20T10:16:10.154Z,1024.50
2019-02-20T10:17:10.729Z,1024.55
2019-02-20T10:18:12.283Z,1024.57
2019-02-20T10:19:12.856Z,1024.58
2019-02-20T10:20:13.481Z,1024.60
2019-02-20T10:21:14.053Z,1024.63
2019-02-20T10:22:14.626Z,1024.63
2019-02-20T10:23:15.201Z,1024.66
2019-02-20T10:24:15.820Z,1024.63
2019-02-20T10:25:16.391Z,1024.65
2019-02-20T10:26:16.965Z,1024.65
2019-02-20T10:27:17.537Z,1024.59
2019-02-20T10:28:18.110Z,1024.61
2019-02-20T10:29:18.686Z,1024.61
2019-02-20T10:30:19.263Z,1024.64
2019-02-20T10:31:19.880Z,1024.58
2019-02-20T10:32:20.453Z,1024.62
2019-02-20T10:33:21.044Z,1024.68
2019-02-20T10:34:21.599Z,1024.66
2019-02-20T10:35:22.223Z,1024.68
2019-02-20T10:36:22.797Z,1024.68
2019-02-20T10:37:23.419Z,1024.68
2019-02-20T10:38:24.001Z,1024.65
2019-02-20T10:39:24.564Z,1024.63
2019-02-20T10:40:25.136Z,1024.69
2019-02-20T10:41:25.709Z,1024.68
2019-02-20T10:42:26.282Z,1024.74
2019-02-20T10:43:26.857Z,1024.74
2019-02-20T10:44:27.430Z,1024.69
2019-02-20T10:45:28.003Z,1024.65
2019-02-20T10:46:28.576Z,1024.69
2019-02-20T10:47:29.153Z,1024.69
2019-02-20T10:48:29.724Z,1024.65
2019-02-20T10:49:30.298Z,1024.70
2019-02-20T10:50:30.872Z,1024.64
2019-02-20T10:51:31.445Z,1024.66
2019-02-20T10:52:32.018Z,1024.62
2019-02-20T10:53:32.592Z,1024.66
2019-02-20T10:54:33.166Z,1024.65
2019-02-20T10:55:33.790Z,1024.68
2019-02-20T10:56:34.361Z,1024.68
2019-02-20T10:57:34.936Z,1024.68
2019-02-20T10:58:35.508Z,1024.65
2019-02-20T10:59:36.082Z,1024.60
2019-02-20T11:00:36.657Z,1024.68
2019-02-20T11:01:37.234Z,1024.71
2019-02-20T11:02:37.805Z,1024.74
2019-02-20T11:03:38.380Z,1024.71
2019-02-20T11:04:38.955Z,1024.72
2019-02-20T11:05:39.576Z,1024.81
2019-02-20T11:06:40.151Z,1024.79
2019-02-20T11:07:40.724Z,1024.87
2019-02-20T11:08:41.299Z,1024.81
2019-02-20T11:09:41.871Z,1024.83
2019-02-20T11:10:42.445Z,1024.87
2019-02-20T11:11:43.117Z,1024.91
2019-02-20T11:12:43.691Z,1024.87
2019-02-20T11:13:44.267Z,1024.85
2019-02-20T11:14:44.841Z,1024.95
2019-02-20T11:15:45.417Z,1024.95
2019-02-20T11:16:45.987Z,1024.88
2019-02-20T11:17:46.559Z,1024.87
2019-02-20T11:18:47.183Z,1024.96
2019-02-20T11:19:47.758Z,1024.97
2019-02-20T11:20:48.731Z,1024.99
2019-02-20T11:21:49.275Z,1024.94
2019-02-20T11:22:49.849Z,1024.98
2019-02-20T11:23:50.425Z,1024.93
2019-02-20T11:24:50.998Z,1024.98
2019-02-20T11:25:51.572Z,1024.99
2019-02-20T11:26:55.003Z,1024.98
2019-02-20T11:27:53.765Z,1024.97
2019-02-20T11:28:54.338Z,1024.97
2019-02-20T11:29:54.913Z,1025.02
2019-02-20T11:30:56.837Z,1024.99
2019-02-20T11:31:57.105Z,1025.04
2019-02-20T11:32:57.681Z,1024.97
2019-02-20T11:33:58.306Z,1024.93
2019-02-20T11:34:58.880Z,1024.94
2019-02-20T11:35:59.454Z,1025.02
2019-02-20T11:37:00.071Z,1024.92
2019-02-20T11:38:00.644Z,1025.06
2019-02-20T11:39:01.217Z,1025.04
2019-02-20T11:40:01.791Z,1024.98
2019-02-20T11:41:02.367Z,1024.89
2019-02-20T11:42:02.943Z,1025.00
2019-02-20T11:43:03.560Z,1024.94
2019-02-20T11:44:04.184Z,1024.92
2019-02-20T11:45:04.806Z,1024.92
2019-02-20T11:46:05.380Z,1024.87
2019-02-20T11:47:05.954Z,1024.88
2019-02-20T11:48:06.528Z,1024.90
2019-02-20T11:49:07.143Z,1024.92
2019-02-20T11:50:07.917Z,1024.94
2019-02-20T11:51:08.495Z,1024.96
2019-02-20T11:52:09.072Z,1024.94
2019-02-20T11:53:09.646Z,1024.88
2019-02-20T11:54:10.270Z,1024.90
2019-02-20T11:55:10.847Z,1024.97
2019-02-20T11:56:12.329Z,1024.81
2019-02-20T11:57:13.972Z,1024.90
2019-02-20T11:58:14.489Z,1024.93
2019-02-20T11:59:15.060Z,1024.89
2019-02-20T12:00:15.633Z,1024.92
2019-02-20T12:01:16.206Z,1024.92
2019-02-20T12:02:16.833Z,1024.86
2019-02-20T12:03:17.405Z,1024.93
2019-02-20T12:04:17.979Z,1024.84
2019-02-20T12:05:18.554Z,1024.84
2019-02-20T12:06:19.128Z,1024.85
2019-02-20T12:07:19.713Z,1024.85
2019-02-20T12:08:20.278Z,1024.84
2019-02-20T12:09:20.900Z,1024.81
2019-02-20T12:10:21.475Z,1024.87
2019-02-20T12:11:22.052Z,1024.80
2019-02-20T12:12:22.625Z,1024.79
2019-02-20T12:13:23.203Z,1024.74
2019-02-20T12:14:24.687Z,1024.84